createdAt,value
2023-04-16T00:00:42.908Z,92.61
2023-04-16T00:05:35.941Z,92.87
2023-04-16T00:08:02.544Z,93.02
2023-04-16T00:10:29.086Z,93.10
2023-04-16T00:12:55.488Z,93.26
2023-04-16T00:15:22.066Z,93.20
2023-04-16T00:17:48.516Z,93.05
2023-04-16T00:20:15.404Z,93.51
2023-04-16T00:22:41.804Z,93.21
2023-04-16T00:25:08.589Z,93.48
2023-04-16T00:27:35.042Z,93.56
2023-04-16T00:30:01.615Z,93.63
2023-04-16T00:32:28.105Z,93.76
2023-04-16T00:34:54.735Z,93.96
2023-04-16T00:37:21.180Z,93.95
2023-04-16T00:39:47.662Z,93.91
2023-04-16T00:42:14.975Z,94.08
2023-04-16T00:44:41.399Z,94.02
2023-04-16T00:47:08.745Z,94.01
2023-04-16T00:49:36.211Z,94.09
2023-04-16T00:52:03.379Z,94.21
2023-04-16T00:54:31.561Z,94.45
2023-04-16T00:56:59.645Z,94.24
2023-04-16T00:59:26.964Z,94.61
2023-04-16T01:01:53.591Z,94.49
2023-04-16T01:04:20.692Z,94.61
2023-04-16T01:06:47.165Z,94.49
2023-04-16T01:09:14.187Z,94.47
2023-04-16T01:11:40.751Z,94.63
2023-04-16T01:14:07.341Z,94.57
2023-04-16T01:16:33.850Z,94.62
2023-04-16T01:19:00.392Z,94.66
2023-04-16T01:21:27.444Z,94.79
2023-04-16T01:23:53.961Z,94.53
2023-04-16T01:26:20.407Z,94.80
2023-04-16T01:28:46.903Z,94.69
2023-04-16T01:31:13.414Z,95.10
2023-04-16T01:34:02.527Z,94.56
2023-04-16T01:36:28.960Z,94.83
2023-04-16T01:38:55.588Z,94.82
2023-04-16T01:41:23.479Z,94.81
2023-04-16T01:43:50.006Z,95.01
2023-04-16T01:46:27.176Z,94.85
2023-04-16T01:48:54.799Z,94.86
2023-04-16T01:51:21.790Z,94.71
2023-04-16T01:53:52.032Z,94.85
2023-04-16T01:56:18.514Z,94.88
2023-04-16T01:58:46.075Z,95.00
2023-04-16T02:01:13.973Z,94.81
2023-04-16T02:03:40.720Z,95.28
2023-04-16T02:06:07.443Z,94.61
2023-04-16T02:08:35.544Z,94.80
2023-04-16T02:11:02.102Z,94.74
2023-04-16T02:13:28.968Z,94.81
2023-04-16T02:15:55.439Z,94.91
2023-04-16T02:18:57.300Z,94.74
2023-04-16T02:21:24.843Z,94.84
2023-04-16T02:23:51.819Z,94.49
2023-04-16T02:26:22.751Z,94.68
2023-04-16T02:28:50.996Z,94.86
2023-04-16T02:31:19.745Z,94.61
2023-04-16T02:33:47.785Z,94.51
2023-04-16T02:36:14.718Z,94.72
2023-04-16T02:38:41.177Z,94.49
2023-04-16T02:41:08.179Z,94.48
2023-04-16T02:43:34.792Z,94.83
2023-04-16T02:46:01.863Z,94.57
2023-04-16T02:48:28.453Z,94.14
2023-04-16T02:50:54.933Z,94.79
2023-04-16T02:53:21.655Z,94.61
2023-04-16T02:55:54.978Z,94.68
2023-04-16T02:58:23.928Z,94.54
2023-04-16T03:00:51.265Z,94.78
2023-04-16T03:03:17.943Z,94.76
2023-04-16T03:05:45.458Z,94.67
2023-04-16T03:08:11.923Z,94.49
2023-04-16T03:10:38.462Z,94.13
2023-04-16T03:13:05.081Z,94.60
2023-04-16T03:15:31.595Z,94.63
2023-04-16T03:17:59.108Z,94.81
2023-04-16T03:20:25.877Z,94.76
2023-04-16T03:22:53.047Z,94.59
2023-04-16T03:25:19.675Z,94.77
2023-04-16T03:27:46.189Z,94.42
2023-04-16T03:30:14.633Z,95.04
2023-04-16T03:32:41.605Z,94.76
2023-04-16T03:35:09.559Z,95.00
2023-04-16T03:37:36.845Z,94.88
2023-04-16T03:40:05.791Z,94.89
2023-04-16T03:42:32.540Z,94.85
2023-04-16T03:44:59.358Z,94.77
2023-04-16T03:47:26.138Z,94.76
2023-04-16T03:49:56.055Z,94.97
2023-04-16T03:52:22.585Z,95.16
2023-04-16T03:54:49.049Z,94.99
2023-04-16T03:57:24.140Z,95.21
2023-04-16T03:59:51.378Z,94.91
2023-04-16T04:02:18.435Z,95.13
2023-04-16T04:04:45.348Z,95.16
2023-04-16T04:07:11.889Z,95.02
2023-04-16T04:09:38.752Z,95.11
2023-04-16T04:12:05.310Z,95.34
2023-04-16T04:14:33.066Z,95.36
2023-04-16T04:16:59.597Z,95.01
2023-04-16T04:19:26.031Z,95.24
2023-04-16T04:21:52.460Z,95.45
2023-04-16T04:24:18.906Z,95.13
2023-04-16T04:26:45.484Z,95.14
2023-04-16T04:29:12.365Z,94.84
2023-04-16T04:31:38.997Z,94.96
2023-04-16T04:34:05.468Z,95.12
2023-04-16T04:36:32.234Z,95.08
2023-04-16T04:39:00.110Z,95.03
2023-04-16T04:41:27.255Z,95.17
2023-04-16T04:43:53.892Z,95.35
2023-04-16T04:46:20.847Z,95.30
2023-04-16T04:48:47.382Z,95.06
2023-04-16T04:51:16.193Z,95.29
2023-04-16T04:53:45.236Z,95.39
2023-04-16T04:56:13.054Z,95.36
2023-04-16T04:58:41.397Z,95.56
2023-04-16T05:01:07.997Z,95.47
2023-04-16T05:03:34.617Z,95.24
2023-04-16T05:06:01.212Z,95.35
2023-04-16T05:08:29.901Z,95.35
2023-04-16T05:10:56.302Z,95.34
2023-04-16T05:13:22.928Z,95.31
2023-04-16T05:15:49.474Z,95.28
2023-04-16T05:18:16.297Z,95.30
2023-04-16T05:20:42.696Z,95.09
2023-04-16T05:23:09.161Z,95.33
2023-04-16T05:25:35.725Z,95.35
2023-04-16T05:28:02.139Z,95.31
2023-04-16T05:30:28.551Z,95.00
2023-04-16T05:32:54.973Z,95.11
2023-04-16T05:35:22.264Z,95.04
2023-04-16T05:37:48.708Z,95.37
2023-04-16T05:40:15.397Z,95.28
2023-04-16T05:42:41.938Z,94.87
2023-04-16T05:45:08.953Z,95.10
2023-04-16T05:47:35.473Z,95.19
2023-04-16T05:50:01.989Z,95.21
2023-04-16T05:52:28.502Z,95.08
2023-04-16T05:54:55.089Z,95.19
2023-04-16T05:57:21.578Z,95.24
2023-04-16T05:59:48.145Z,95.19
2023-04-16T06:02:14.994Z,95.29
2023-04-16T06:04:41.483Z,95.17
2023-04-16T06:07:07.985Z,95.00
2023-04-16T06:09:34.397Z,95.28
2023-04-16T06:12:01.312Z,95.10
2023-04-16T06:14:27.796Z,95.05
2023-04-16T06:16:54.239Z,95.29
2023-04-16T06:19:20.898Z,95.14
2023-04-16T06:21:47.409Z,95.04
2023-04-16T06:24:14.037Z,95.00
2023-04-16T06:26:40.485Z,95.12
2023-04-16T06:29:06.893Z,95.27
2023-04-16T06:31:33.384Z,94.65
2023-04-16T06:33:59.829Z,95.18
2023-04-16T06:36:27.563Z,95.05
2023-04-16T06:38:53.955Z,94.95
2023-04-16T06:41:22.700Z,95.07
2023-04-16T06:43:49.468Z,95.04
2023-04-16T06:46:15.926Z,94.96
2023-04-16T06:48:42.577Z,94.88
2023-04-16T06:51:09.149Z,94.79
2023-04-16T06:53:37.477Z,94.71
2023-04-16T06:56:04.276Z,94.69
2023-04-16T06:58:30.780Z,94.68
2023-04-16T07:00:57.363Z,94.59
2023-04-16T07:03:23.994Z,94.62
2023-04-16T07:05:50.597Z,94.32
2023-04-16T07:08:17.058Z,94.48
2023-04-16T07:10:43.685Z,94.63
2023-04-16T07:13:10.382Z,94.53
2023-04-16T07:15:36.869Z,94.24
2023-04-16T07:18:03.374Z,93.93
2023-04-16T07:20:29.980Z,94.18
2023-04-16T07:22:56.624Z,94.13
2023-04-16T07:25:23.112Z,94.27
2023-04-16T07:27:49.668Z,94.23
2023-04-16T07:30:16.240Z,94.22
2023-04-16T07:32:42.952Z,94.09
2023-04-16T07:35:09.619Z,93.97
2023-04-16T07:37:36.081Z,94.34
2023-04-16T07:40:02.567Z,93.95
2023-04-16T07:42:29.123Z,93.84
2023-04-16T07:44:55.592Z,93.83
2023-04-16T07:47:23.249Z,93.77
2023-04-16T07:49:50.581Z,93.62
2023-04-16T07:52:16.990Z,93.58
2023-04-16T07:54:43.536Z,93.55
2023-04-16T07:57:11.473Z,93.47
2023-04-16T07:59:38.058Z,93.47
2023-04-16T08:02:04.910Z,93.44
2023-04-16T08:04:31.729Z,93.27
2023-04-16T08:06:58.333Z,93.14
2023-04-16T08:09:28.307Z,92.86
2023-04-16T08:11:54.855Z,92.84
2023-04-16T08:14:21.332Z,92.65
2023-04-16T08:16:47.802Z,92.63
2023-04-16T08:19:14.265Z,92.66
2023-04-16T08:21:41.075Z,92.44
2023-04-16T08:24:07.969Z,92.32
2023-04-16T08:26:34.643Z,92.20
2023-04-16T08:29:01.180Z,92.43
2023-04-16T08:31:27.757Z,92.07
2023-04-16T08:33:54.206Z,92.04
2023-04-16T08:36:20.836Z,91.87
2023-04-16T08:38:47.364Z,91.69
2023-04-16T08:41:14.949Z,91.35
2023-04-16T08:43:45.590Z,91.01
2023-04-16T08:46:13.079Z,91.32
2023-04-16T08:48:42.026Z,90.81
2023-04-16T08:51:10.022Z,91.08
2023-04-16T08:53:48.387Z,91.04
2023-04-16T08:56:18.028Z,90.65
2023-04-16T08:58:47.491Z,90.54
2023-04-16T09:01:14.820Z,90.10
2023-04-16T09:03:41.726Z,90.40
2023-04-16T09:06:09.918Z,90.05
2023-04-16T09:08:38.046Z,90.13
2023-04-16T09:11:04.617Z,89.69
2023-04-16T09:13:34.167Z,88.92
2023-04-16T09:16:00.999Z,88.63
2023-04-16T09:18:28.417Z,88.42
2023-04-16T09:20:56.252Z,88.70
2023-04-16T09:23:23.373Z,88.95
2023-04-16T09:25:49.773Z,88.26
2023-04-16T09:28:41.775Z,88.42
2023-04-16T09:31:13.361Z,88.35
2023-04-16T09:33:40.493Z,87.85
2023-04-16T09:36:07.628Z,88.00
2023-04-16T09:38:48.034Z,87.63
2023-04-16T09:41:18.071Z,87.70
2023-04-16T09:44:02.007Z,87.92
2023-04-16T09:46:34.950Z,87.78
2023-04-16T09:49:15.518Z,87.92
2023-04-16T09:51:43.551Z,87.64
2023-04-16T09:54:10.113Z,87.83
2023-04-16T09:56:44.959Z,87.77
2023-04-16T09:59:18.052Z,87.85
2023-04-16T10:01:46.962Z,87.90
2023-04-16T10:04:13.352Z,87.98
2023-04-16T10:06:39.854Z,87.71
2023-04-16T10:09:09.687Z,87.65
2023-04-16T10:11:37.755Z,87.57
2023-04-16T10:14:04.207Z,87.93
2023-04-16T10:16:31.053Z,87.83
2023-04-16T10:18:58.749Z,87.35
2023-04-16T10:21:26.370Z,87.65
2023-04-16T10:23:52.937Z,87.05
2023-04-16T10:26:21.318Z,86.68
2023-04-16T10:28:47.989Z,86.99
2023-04-16T10:31:14.847Z,87.06
2023-04-16T10:33:42.633Z,86.72
2023-04-16T10:36:09.601Z,86.51
2023-04-16T10:38:39.725Z,87.07
2023-04-16T10:41:07.066Z,86.77
2023-04-16T10:43:42.437Z,86.93
2023-04-16T10:46:33.367Z,86.78
2023-04-16T10:49:16.232Z,87.11
2023-04-16T10:51:42.794Z,86.50
2023-04-16T10:54:09.279Z,86.11
2023-04-16T10:56:37.152Z,86.29
2023-04-16T10:59:11.418Z,86.58
2023-04-16T11:01:46.188Z,86.23
2023-04-16T11:04:22.074Z,86.04
2023-04-16T11:07:03.059Z,85.91
2023-04-16T11:10:02.092Z,85.59
2023-04-16T11:12:35.529Z,85.72
2023-04-16T11:15:05.976Z,85.76
2023-04-16T11:17:43.616Z,85.08
2023-04-16T11:20:20.246Z,85.21
2023-04-16T11:22:57.713Z,85.47
2023-04-16T11:25:26.289Z,85.12
2023-04-16T11:27:53.207Z,84.82
2023-04-16T11:30:31.963Z,85.19
2023-04-16T11:32:58.600Z,85.01
2023-04-16T11:35:27.438Z,84.74
2023-04-16T11:37:57.560Z,84.75
2023-04-16T11:40:25.244Z,84.53
2023-04-16T11:42:51.870Z,84.85
2023-04-16T11:45:19.445Z,84.84
2023-04-16T11:47:55.148Z,85.19
2023-04-16T11:50:24.206Z,85.06
2023-04-16T11:52:51.645Z,84.29
2023-04-16T11:55:18.906Z,83.88
2023-04-16T11:57:46.005Z,83.57
2023-04-16T12:00:14.238Z,84.29
2023-04-16T12:02:51.642Z,83.69
2023-04-16T12:05:28.792Z,83.72
2023-04-16T12:07:55.845Z,83.56
2023-04-16T12:10:22.764Z,83.94
2023-04-16T12:12:49.572Z,83.37
2023-04-16T12:15:16.144Z,84.03
2023-04-16T12:17:42.602Z,83.41
2023-04-16T12:20:10.054Z,82.67
2023-04-16T12:22:38.400Z,82.56
2023-04-16T12:25:13.586Z,82.32
2023-04-16T12:27:55.584Z,82.19
2023-04-16T12:30:23.791Z,82.55
2023-04-16T12:32:52.489Z,82.42
2023-04-16T12:35:29.720Z,82.74
2023-04-16T12:37:59.047Z,83.09
2023-04-16T12:40:25.979Z,82.63
2023-04-16T12:42:52.452Z,82.67
2023-04-16T12:45:19.123Z,83.00
2023-04-16T12:47:46.513Z,82.89
2023-04-16T12:50:12.998Z,82.81
2023-04-16T12:52:39.530Z,83.44
2023-04-16T12:55:06.653Z,83.59
2023-04-16T12:57:33.130Z,83.10
2023-04-16T12:59:59.601Z,82.59
2023-04-16T13:02:26.189Z,81.94
2023-04-16T13:04:53.857Z,82.18
2023-04-16T13:07:21.230Z,82.36
2023-04-16T13:09:47.782Z,82.13
2023-04-16T13:12:14.264Z,82.31
2023-04-16T13:14:42.399Z,82.73
2023-04-16T13:17:09.916Z,82.11
2023-04-16T13:19:36.512Z,82.20
2023-04-16T13:22:03.183Z,82.68
2023-04-16T13:24:30.526Z,82.08
2023-04-16T13:26:56.931Z,82.12
2023-04-16T13:29:23.336Z,81.97
2023-04-16T13:31:50.003Z,81.92
2023-04-16T13:34:16.573Z,81.52
2023-04-16T13:36:43.283Z,82.39
2023-04-16T13:39:12.737Z,81.90
2023-04-16T13:41:39.567Z,82.07
2023-04-16T13:44:06.348Z,82.04
2023-04-16T13:46:33.427Z,81.79
2023-04-16T13:49:00.058Z,81.68
2023-04-16T13:51:27.669Z,81.59
2023-04-16T13:53:54.818Z,81.98
2023-04-16T13:56:21.394Z,82.05
2023-04-16T13:58:48.393Z,81.73
2023-04-16T14:01:15.038Z,81.64
2023-04-16T14:03:42.049Z,81.10
2023-04-16T14:06:08.622Z,81.28
2023-04-16T14:08:35.074Z,80.39
2023-04-16T14:11:02.127Z,80.79
2023-04-16T14:13:28.674Z,79.67
2023-04-16T14:15:55.776Z,79.41
2023-04-16T14:18:22.289Z,79.98
2023-04-16T14:20:48.722Z,78.89
2023-04-16T14:23:15.278Z,79.31
2023-04-16T14:25:41.764Z,78.69
2023-04-16T14:28:09.226Z,78.39
2023-04-16T14:30:35.678Z,78.26
2023-04-16T14:33:04.401Z,77.63
2023-04-16T14:35:30.844Z,77.26
2023-04-16T14:37:58.298Z,77.68
2023-04-16T14:40:24.820Z,78.15
2023-04-16T14:42:51.366Z,78.66
2023-04-16T14:45:17.769Z,78.71
2023-04-16T14:47:47.683Z,79.17
2023-04-16T14:50:15.666Z,80.04
2023-04-16T14:52:42.215Z,79.78
2023-04-16T14:55:08.743Z,80.21
2023-04-16T14:57:35.330Z,79.99
2023-04-16T15:00:02.130Z,79.04
2023-04-16T15:02:29.226Z,78.85
2023-04-16T15:04:55.948Z,79.01
2023-04-16T15:07:22.526Z,78.90
2023-04-16T15:09:49.109Z,79.24
2023-04-16T15:12:17.941Z,78.53
2023-04-16T15:14:45.580Z,77.74
2023-04-16T15:17:12.162Z,77.02
2023-04-16T15:19:38.657Z,76.49
2023-04-16T15:22:05.083Z,75.91
2023-04-16T15:24:31.613Z,75.68
2023-04-16T15:26:58.228Z,76.30
2023-04-16T15:29:24.810Z,76.95
2023-04-16T15:31:51.216Z,76.42
2023-04-16T15:34:17.643Z,76.40
2023-04-16T15:36:44.067Z,77.06
2023-04-16T15:39:10.902Z,76.73
2023-04-16T15:41:50.224Z,77.34
2023-04-16T15:44:24.185Z,76.79
2023-04-16T15:46:50.851Z,77.06
2023-04-16T15:49:17.472Z,77.96
2023-04-16T15:51:43.965Z,78.31
2023-04-16T15:54:10.403Z,78.53
2023-04-16T15:56:37.081Z,78.86
2023-04-16T15:59:03.821Z,78.72
2023-04-16T16:01:31.104Z,78.52
2023-04-16T16:04:07.428Z,78.37
2023-04-16T16:06:34.204Z,78.61
2023-04-16T16:09:00.563Z,78.58
2023-04-16T16:11:27.617Z,79.56
2023-04-16T16:13:54.164Z,79.63
2023-04-16T16:16:21.666Z,79.62
2023-04-16T16:18:48.183Z,79.58
2023-04-16T16:21:14.642Z,79.08
2023-04-16T16:23:41.255Z,80.34
2023-04-16T16:26:07.745Z,80.23
2023-04-16T16:28:37.519Z,79.63
2023-04-16T16:31:05.927Z,79.67
2023-04-16T16:33:33.094Z,80.22
2023-04-16T16:35:59.690Z,80.02
2023-04-16T16:38:26.187Z,80.48
2023-04-16T16:40:52.721Z,80.20
2023-04-16T16:43:19.449Z,80.86
2023-04-16T16:45:46.392Z,81.70
2023-04-16T16:48:12.881Z,81.69
2023-04-16T16:50:41.774Z,81.38
2023-04-16T16:53:08.238Z,81.22
2023-04-16T16:55:35.526Z,80.96
2023-04-16T16:58:02.174Z,82.64
2023-04-16T17:00:28.753Z,82.29
2023-04-16T17:02:55.418Z,82.93
2023-04-16T17:05:22.160Z,82.21
2023-04-16T17:07:48.663Z,82.97
2023-04-16T17:10:21.683Z,83.14
2023-04-16T17:12:49.259Z,83.56
2023-04-16T17:15:17.189Z,83.74
2023-04-16T17:17:44.522Z,84.02
2023-04-16T17:20:12.160Z,83.79
2023-04-16T17:22:39.717Z,84.12
2023-04-16T17:25:07.635Z,84.98
2023-04-16T17:27:34.349Z,84.70
2023-04-16T17:30:01.773Z,84.95
2023-04-16T17:32:29.556Z,85.03
2023-04-16T17:34:56.532Z,85.54
2023-04-16T17:37:23.650Z,85.64
2023-04-16T17:39:51.018Z,85.69
2023-04-16T17:42:17.616Z,85.81
2023-04-16T17:44:44.207Z,85.68
2023-04-16T17:47:10.810Z,85.59
2023-04-16T17:49:37.302Z,86.10
2023-04-16T17:52:03.973Z,85.91
2023-04-16T17:54:30.470Z,86.39
2023-04-16T17:56:57.620Z,86.46
2023-04-16T17:59:24.099Z,86.12
2023-04-16T18:01:50.789Z,86.53
2023-04-16T18:04:17.839Z,86.47
2023-04-16T18:06:44.761Z,86.86
2023-04-16T18:09:12.083Z,87.33
2023-04-16T18:11:38.586Z,87.21
2023-04-16T18:14:05.176Z,87.26
2023-04-16T18:16:32.182Z,87.33
2023-04-16T18:18:59.049Z,87.59
2023-04-16T18:21:25.900Z,87.57
2023-04-16T18:23:52.318Z,87.52
2023-04-16T18:26:21.122Z,87.90
2023-04-16T18:28:49.266Z,88.21
2023-04-16T18:31:15.955Z,88.11
2023-04-16T18:33:53.380Z,87.95
2023-04-16T18:36:21.871Z,87.74
2023-04-16T18:39:00.162Z,87.95
2023-04-16T18:41:28.672Z,88.03
2023-04-16T18:43:55.324Z,88.39
2023-04-16T18:46:21.903Z,88.39
2023-04-16T18:48:48.427Z,88.26
2023-04-16T18:51:16.253Z,88.27
2023-04-16T18:53:44.264Z,88.26
2023-04-16T18:56:11.601Z,88.91
2023-04-16T18:58:38.165Z,89.22
2023-04-16T19:01:06.088Z,88.81
2023-04-16T19:03:33.234Z,89.03
2023-04-16T19:06:00.087Z,89.06
2023-04-16T19:08:27.105Z,89.07
2023-04-16T19:10:53.528Z,89.32
2023-04-16T19:13:20.049Z,88.99
2023-04-16T19:15:46.637Z,88.72
2023-04-16T19:18:13.164Z,89.04
2023-04-16T19:20:39.737Z,88.97
2023-04-16T19:23:08.805Z,88.41
2023-04-16T19:25:36.516Z,89.34
2023-04-16T19:28:03.730Z,89.13
2023-04-16T19:30:30.808Z,88.94
2023-04-16T19:32:57.850Z,88.97
2023-04-16T19:35:24.477Z,89.45
2023-04-16T19:37:51.393Z,89.27
2023-04-16T19:40:18.029Z,89.03
2023-04-16T19:42:45.414Z,89.27
2023-04-16T19:45:11.975Z,89.36
2023-04-16T19:47:38.719Z,89.43
2023-04-16T19:50:05.854Z,89.39
2023-04-16T19:52:37.295Z,89.85
2023-04-16T19:55:04.754Z,89.85
2023-04-16T19:57:31.170Z,89.16
2023-04-16T19:59:57.618Z,89.78
2023-04-16T20:02:24.240Z,89.58
2023-04-16T20:04:52.842Z,90.13
2023-04-16T20:07:20.063Z,89.93
2023-04-16T20:09:46.518Z,89.77
2023-04-16T20:12:12.976Z,89.76
2023-04-16T20:14:39.461Z,89.52
2023-04-16T20:17:09.808Z,89.41
2023-04-16T20:19:38.378Z,89.42
2023-04-16T20:22:05.050Z,89.63
2023-04-16T20:24:31.603Z,89.35
2023-04-16T20:26:58.073Z,89.42
2023-04-16T20:29:24.504Z,90.05
2023-04-16T20:31:50.993Z,89.81
2023-04-16T20:34:17.831Z,89.66
2023-04-16T20:36:44.382Z,89.84
2023-04-16T20:39:11.630Z,90.01
2023-04-16T20:41:43.606Z,90.16
2023-04-16T20:44:10.333Z,89.98
2023-04-16T20:46:39.692Z,90.41
2023-04-16T20:49:07.472Z,90.43
2023-04-16T20:51:33.941Z,90.93
2023-04-16T20:54:01.067Z,90.93
2023-04-16T20:56:27.516Z,90.93
2023-04-16T20:58:53.967Z,91.02
2023-04-16T21:01:20.739Z,91.07
2023-04-16T21:03:47.424Z,90.95
2023-04-16T21:06:17.909Z,90.89
2023-04-16T21:08:44.445Z,91.06
2023-04-16T21:11:10.892Z,90.91
2023-04-16T21:13:37.309Z,90.83
2023-04-16T21:16:04.826Z,91.09
2023-04-16T21:18:31.356Z,91.14
2023-04-16T21:20:58.864Z,91.34
2023-04-16T21:23:25.707Z,91.16
2023-04-16T21:25:52.163Z,91.38
2023-04-16T21:28:18.698Z,91.10
2023-04-16T21:30:45.135Z,91.15
2023-04-16T21:33:12.964Z,91.47
2023-04-16T21:35:39.448Z,91.60
2023-04-16T21:38:05.890Z,91.54
2023-04-16T21:40:32.359Z,91.47
2023-04-16T21:42:58.840Z,91.93
2023-04-16T21:45:25.461Z,91.57
2023-04-16T21:47:52.010Z,92.09
2023-04-16T21:50:18.541Z,91.80
2023-04-16T21:52:46.170Z,91.98
2023-04-16T21:55:14.232Z,91.62
2023-04-16T21:57:41.732Z,91.86
2023-04-16T22:00:13.832Z,91.78
2023-04-16T22:02:42.172Z,92.05
2023-04-16T22:05:09.204Z,91.59
2023-04-16T22:07:36.718Z,91.56
2023-04-16T22:10:04.433Z,91.66
2023-04-16T22:12:31.277Z,91.85
2023-04-16T22:15:02.784Z,91.81
2023-04-16T22:17:30.085Z,92.11
2023-04-16T22:19:57.266Z,92.04
2023-04-16T22:22:23.755Z,92.32
2023-04-16T22:24:50.322Z,92.32
2023-04-16T22:27:16.909Z,92.25
2023-04-16T22:29:43.444Z,92.49
2023-04-16T22:32:09.922Z,92.23
2023-04-16T22:34:38.652Z,92.31
2023-04-16T22:37:05.906Z,92.19
2023-04-16T22:39:32.345Z,92.05
2023-04-16T22:41:58.880Z,92.11
2023-04-16T22:44:25.508Z,92.37
2023-04-16T22:46:52.096Z,92.32
2023-04-16T22:49:18.548Z,92.33
2023-04-16T22:51:45.103Z,92.77
2023-04-16T22:54:13.633Z,92.73
2023-04-16T22:56:40.740Z,92.61
2023-04-16T22:59:07.394Z,92.76
2023-04-16T23:01:34.949Z,92.70
2023-04-16T23:04:01.499Z,92.99
2023-04-16T23:06:27.958Z,92.81
2023-04-16T23:08:54.397Z,93.00
2023-04-16T23:11:20.841Z,92.87
2023-04-16T23:13:47.277Z,93.24
2023-04-16T23:16:13.836Z,92.89
2023-04-16T23:18:40.351Z,92.93
2023-04-16T23:21:06.838Z,92.75
2023-04-16T23:23:33.416Z,92.67
2023-04-16T23:26:02.601Z,92.93
2023-04-16T23:28:29.117Z,92.96
2023-04-16T23:30:55.592Z,93.06
2023-04-16T23:33:22.089Z,93.21
2023-04-16T23:35:48.500Z,93.28
2023-04-16T23:38:17.104Z,93.12
2023-04-16T23:40:43.561Z,93.46
2023-04-16T23:43:10.592Z,93.58
2023-04-16T23:45:37.567Z,93.36
2023-04-16T23:48:04.099Z,93.40
2023-04-16T23:50:30.700Z,93.50
2023-04-16T23:52:57.142Z,93.51
2023-04-16T23:55:23.814Z,93.43
2023-04-16T23:57:50.306Z,93.36
